createdAt,value
2019-04-16T00:02:51.188Z,61.68
2019-04-16T00:05:48.512Z,62.10
2019-04-16T00:08:44.706Z,62.60
2019-04-16T00:11:43.924Z,62.28
2019-04-16T00:14:30.897Z,62.22
2019-04-16T00:17:16.518Z,62.43
2019-04-16T00:20:05.846Z,65.31
2019-04-16T00:22:59.575Z,65.27
2019-04-16T00:25:44.810Z,64.51
2019-04-16T00:28:31.338Z,64.65
2019-04-16T00:31:16.503Z,64.82
2019-04-16T00:34:01.495Z,64.52
2019-04-16T00:36:48.797Z,64.32
2019-04-16T00:39:33.253Z,64.67
2019-04-16T00:42:18.578Z,64.33
2019-04-16T00:45:04.005Z,64.17
2019-04-16T00:47:51.420Z,64.47
2019-04-16T00:50:36.346Z,63.91
2019-04-16T00:53:21.495Z,64.97
2019-04-16T00:56:07.346Z,65.12
2019-04-16T00:58:53.103Z,64.52
2019-04-16T01:01:38.262Z,64.77
2019-04-16T01:04:23.456Z,65.30
2019-04-16T01:07:08.198Z,65.26
2019-04-16T01:09:53.864Z,65.00
2019-04-16T01:12:39.455Z,64.83
2019-04-16T01:15:24.712Z,64.73
2019-04-16T01:18:09.600Z,65.17
2019-04-16T01:20:55.013Z,64.48
2019-04-16T01:23:40.404Z,64.55
2019-04-16T01:26:26.893Z,64.49
2019-04-16T01:29:15.590Z,64.31
2019-04-16T01:32:19.549Z,63.91
2019-04-16T01:35:06.799Z,63.66
2019-04-16T01:38:10.688Z,64.47
2019-04-16T01:41:10.273Z,64.48
2019-04-16T01:43:57.090Z,63.93
2019-04-16T01:46:42.525Z,64.17
2019-04-16T01:49:28.132Z,64.31
2019-04-16T01:52:13.199Z,63.78
2019-04-16T01:54:59.328Z,63.90
2019-04-16T01:57:44.459Z,63.97
2019-04-16T02:00:30.758Z,63.50
2019-04-16T02:03:17.815Z,63.52
2019-04-16T02:06:03.472Z,63.37
2019-04-16T02:08:48.939Z,62.40
2019-04-16T02:11:33.769Z,62.23
2019-04-16T02:14:22.127Z,61.85
2019-04-16T02:17:06.291Z,62.49
2019-04-16T02:19:51.378Z,62.24
2019-04-16T02:22:36.396Z,62.06
2019-04-16T02:25:21.757Z,61.97
2019-04-16T02:28:07.404Z,62.24
2019-04-16T02:30:52.684Z,61.99
2019-04-16T02:33:38.200Z,61.52
2019-04-16T02:36:23.337Z,62.28
2019-04-16T02:39:08.708Z,62.10
2019-04-16T02:41:58.136Z,62.12
2019-04-16T02:44:41.135Z,62.80
2019-04-16T02:47:25.927Z,62.44
2019-04-16T02:50:15.980Z,62.30
2019-04-16T02:53:24.129Z,61.96
2019-04-16T02:56:27.681Z,61.60
2019-04-16T02:59:26.802Z,61.84
2019-04-16T03:02:23.795Z,61.76
2019-04-16T03:05:10.979Z,61.96
2019-04-16T03:07:56.173Z,61.65
2019-04-16T03:10:41.846Z,61.43
2019-04-16T03:13:28.311Z,61.23
2019-04-16T03:16:27.868Z,60.71
2019-04-16T03:19:19.262Z,60.39
2019-04-16T03:22:02.977Z,60.54
2019-04-16T03:24:48.632Z,60.36
2019-04-16T03:27:33.486Z,61.30
2019-04-16T03:30:18.503Z,61.17
2019-04-16T03:33:10.422Z,60.06
2019-04-16T03:35:51.119Z,60.24
2019-04-16T03:38:39.999Z,60.92
2019-04-16T03:41:24.874Z,61.15
2019-04-16T03:44:10.816Z,60.57
2019-04-16T03:46:56.587Z,60.53
2019-04-16T03:49:41.960Z,60.50
2019-04-16T03:52:27.294Z,59.96
2019-04-16T03:55:12.254Z,59.67
2019-04-16T03:57:58.700Z,59.66
2019-04-16T04:00:44.942Z,59.50
2019-04-16T04:03:30.919Z,59.50
2019-04-16T04:06:16.222Z,59.11
2019-04-16T04:09:01.464Z,59.27
2019-04-16T04:11:46.681Z,59.17
2019-04-16T04:14:31.834Z,59.29
2019-04-16T04:17:17.030Z,59.13
2019-04-16T04:20:02.059Z,58.74
2019-04-16T04:22:47.316Z,58.13
2019-04-16T04:25:35.990Z,57.53
2019-04-16T04:28:20.643Z,57.23
2019-04-16T04:31:05.710Z,56.95
2019-04-16T04:33:51.316Z,56.65
2019-04-16T04:36:36.431Z,56.00
2019-04-16T04:39:21.397Z,55.79
2019-04-16T04:42:07.374Z,55.60
2019-04-16T04:44:52.515Z,55.38
2019-04-16T04:47:37.687Z,54.32
2019-04-16T04:50:22.366Z,53.84
2019-04-16T04:53:08.402Z,52.15
2019-04-16T04:55:57.134Z,51.72
2019-04-16T04:58:42.280Z,50.48
2019-04-16T05:01:27.729Z,46.42
2019-04-16T05:04:20.428Z,43.90
2019-04-16T05:07:08.243Z,42.94
2019-04-16T05:09:53.618Z,42.35
2019-04-16T05:12:39.341Z,40.99
2019-04-16T05:15:26.369Z,39.09
2019-04-16T05:18:12.322Z,38.48
2019-04-16T05:20:57.908Z,37.73
2019-04-16T05:23:43.733Z,36.93
2019-04-16T05:26:29.382Z,36.11
2019-04-16T05:29:17.464Z,34.89
2019-04-16T05:32:02.367Z,33.94
2019-04-16T05:34:48.092Z,33.01
2019-04-16T05:37:33.651Z,32.33
2019-04-16T05:40:20.665Z,33.48
2019-04-16T05:43:06.469Z,33.34
2019-04-16T05:45:52.257Z,35.55
2019-04-16T05:48:38.092Z,35.99
2019-04-16T05:51:23.544Z,39.13
2019-04-16T05:54:28.108Z,40.60
2019-04-16T05:57:25.638Z,40.62
2019-04-16T06:00:10.857Z,42.66
2019-04-16T06:02:56.631Z,42.34
2019-04-16T06:05:42.219Z,40.87
2019-04-16T06:08:27.918Z,40.72
2019-04-16T06:11:27.464Z,42.12
2019-04-16T06:14:05.536Z,41.68
2019-04-16T06:16:56.795Z,41.93
2019-04-16T06:20:00.671Z,42.62
2019-04-16T06:23:06.422Z,41.42
2019-04-16T06:25:53.542Z,41.66
2019-04-16T06:28:56.419Z,41.34
2019-04-16T06:31:56.858Z,41.80
2019-04-16T06:34:47.140Z,40.68
2019-04-16T06:37:33.884Z,40.26
2019-04-16T06:40:37.983Z,41.26
2019-04-16T06:43:26.478Z,40.36
2019-04-16T06:46:20.629Z,40.68
2019-04-16T06:49:08.198Z,40.54
2019-04-16T06:52:04.692Z,36.39
2019-04-16T06:55:08.968Z,33.43
2019-04-16T06:58:05.536Z,31.70
2019-04-16T07:01:07.972Z,28.89
2019-04-16T07:03:59.943Z,28.47
2019-04-16T07:07:07.772Z,28.10
2019-04-16T07:09:56.717Z,27.98
2019-04-16T07:12:40.639Z,27.47
2019-04-16T07:15:28.765Z,24.86
2019-04-16T07:18:14.197Z,23.99
2019-04-16T07:21:00.139Z,24.92
2019-04-16T07:23:47.554Z,23.71
2019-04-16T07:26:34.057Z,23.88
2019-04-16T07:29:24.742Z,26.20
2019-04-16T07:32:21.805Z,24.05
2019-04-16T07:35:27.410Z,24.01
2019-04-16T07:38:35.186Z,23.43
2019-04-16T07:41:22.409Z,24.66
2019-04-16T07:44:11.246Z,24.08
2019-04-16T07:46:59.160Z,23.93
2019-04-16T07:49:49.970Z,22.65
2019-04-16T07:52:42.093Z,22.85
2019-04-16T07:55:33.110Z,22.66
2019-04-16T07:58:18.219Z,22.82
2019-04-16T08:01:04.839Z,21.74
2019-04-16T08:03:50.126Z,22.82
2019-04-16T08:06:35.893Z,20.10
2019-04-16T08:09:21.436Z,21.52
2019-04-16T08:12:10.841Z,22.71
2019-04-16T08:14:54.563Z,21.84
2019-04-16T08:17:40.055Z,21.65
2019-04-16T08:20:26.052Z,21.41
2019-04-16T08:23:30.934Z,21.05
2019-04-16T08:26:17.376Z,20.57
2019-04-16T08:29:03.481Z,20.62
2019-04-16T08:31:50.017Z,20.33
2019-04-16T08:34:35.836Z,22.20
2019-04-16T08:37:21.599Z,19.90
2019-04-16T08:40:08.820Z,19.52
2019-04-16T08:42:57.534Z,19.23
2019-04-16T08:45:42.643Z,19.65
2019-04-16T08:48:28.330Z,18.63
2019-04-16T08:51:14.813Z,18.56
2019-04-16T08:54:00.321Z,20.20
2019-04-16T08:56:46.158Z,20.46
2019-04-16T08:59:32.407Z,20.04
2019-04-16T09:02:18.285Z,20.08
2019-04-16T09:05:06.238Z,19.99
2019-04-16T09:07:51.986Z,20.66
2019-04-16T09:10:38.296Z,20.23
2019-04-16T09:13:28.562Z,20.27
2019-04-16T09:16:14.265Z,20.11
2019-04-16T09:19:16.880Z,19.79
2019-04-16T09:22:03.106Z,20.26
2019-04-16T09:24:57.073Z,18.91
2019-04-16T09:27:44.586Z,20.08
2019-04-16T09:30:46.709Z,19.77
2019-04-16T09:33:36.613Z,20.12
2019-04-16T09:36:42.721Z,19.84
2019-04-16T09:39:48.910Z,19.44
2019-04-16T09:42:35.652Z,20.18
2019-04-16T09:45:24.377Z,19.65
2019-04-16T09:48:08.866Z,20.18
2019-04-16T09:50:54.548Z,22.21
2019-04-16T09:53:40.941Z,19.88
2019-04-16T09:56:29.127Z,20.03
2019-04-16T09:59:17.236Z,19.52
2019-04-16T10:02:04.847Z,18.66
2019-04-16T10:04:50.451Z,19.22
2019-04-16T10:07:39.836Z,19.58
2019-04-16T10:10:27.963Z,18.96
2019-04-16T10:13:12.738Z,19.94
2019-04-16T10:15:58.850Z,18.30
2019-04-16T10:18:44.695Z,18.57
2019-04-16T10:21:30.614Z,19.89
2019-04-16T10:24:18.377Z,19.10
2019-04-16T10:27:04.539Z,19.28
2019-04-16T10:29:50.114Z,19.54
2019-04-16T10:32:35.664Z,19.28
2019-04-16T10:35:21.525Z,18.80
2019-04-16T10:38:26.538Z,18.60
2019-04-16T10:41:14.874Z,19.15
2019-04-16T10:44:06.019Z,18.57
2019-04-16T10:46:56.955Z,18.72
2019-04-16T10:49:45.050Z,18.35
2019-04-16T10:52:32.686Z,16.67
2019-04-16T10:55:23.041Z,17.44
2019-04-16T10:58:27.178Z,15.90
2019-04-16T11:01:30.373Z,16.29
2019-04-16T11:04:32.235Z,16.75
2019-04-16T11:07:20.051Z,17.66
2019-04-16T11:10:06.695Z,18.10
2019-04-16T11:12:52.898Z,18.25
2019-04-16T11:15:39.534Z,17.66
2019-04-16T11:18:24.681Z,17.34
2019-04-16T11:21:11.823Z,17.33
2019-04-16T11:23:57.129Z,17.81
2019-04-16T11:26:44.429Z,17.43
2019-04-16T11:29:30.044Z,16.99
2019-04-16T11:32:19.210Z,19.02
2019-04-16T11:35:04.943Z,16.86
2019-04-16T11:37:51.027Z,17.53
2019-04-16T11:40:37.184Z,16.37
2019-04-16T11:43:22.926Z,17.91
2019-04-16T11:46:09.051Z,17.52
2019-04-16T11:48:55.177Z,16.87
2019-04-16T11:51:40.734Z,17.12
2019-04-16T11:54:26.554Z,16.39
2019-04-16T11:57:13.313Z,17.07
2019-04-16T12:00:07.785Z,16.84
2019-04-16T12:03:05.147Z,18.16
2019-04-16T12:06:09.374Z,15.47
2019-04-16T12:08:59.904Z,16.22
2019-04-16T12:11:50.596Z,14.96
2019-04-16T12:14:53.934Z,15.51
2019-04-16T12:17:59.432Z,15.40
2019-04-16T12:20:50.518Z,15.79
2019-04-16T12:23:38.385Z,15.77
2019-04-16T12:26:37.926Z,14.78
2019-04-16T12:29:34.197Z,15.45
2019-04-16T12:32:21.959Z,13.82
2019-04-16T12:35:10.528Z,14.08
2019-04-16T12:38:18.366Z,15.77
2019-04-16T12:41:12.782Z,14.85
2019-04-16T12:44:17.518Z,14.67
2019-04-16T12:47:08.217Z,14.42
2019-04-16T12:50:05.178Z,14.82
2019-04-16T12:52:58.463Z,14.46
2019-04-16T12:55:49.706Z,14.56
2019-04-16T12:58:40.999Z,14.99
2019-04-16T13:01:36.337Z,15.36
2019-04-16T13:04:42.109Z,14.16
2019-04-16T13:07:46.806Z,14.02
2019-04-16T13:10:34.192Z,14.19
2019-04-16T13:13:22.008Z,14.83
2019-04-16T13:16:09.363Z,14.99
2019-04-16T13:19:13.542Z,14.79
2019-04-16T13:22:00.003Z,14.02
2019-04-16T13:24:51.504Z,14.00
2019-04-16T13:27:39.033Z,13.74
2019-04-16T13:30:25.103Z,13.76
2019-04-16T13:33:11.138Z,14.12
2019-04-16T13:35:57.084Z,14.60
2019-04-16T13:38:44.927Z,14.54
2019-04-16T13:41:30.489Z,14.59
2019-04-16T13:44:18.081Z,16.04
2019-04-16T13:47:04.822Z,17.54
2019-04-16T13:50:04.937Z,17.52
2019-04-16T13:52:54.947Z,17.49
2019-04-16T13:55:44.606Z,17.74
2019-04-16T13:58:41.200Z,18.73
2019-04-16T14:01:28.838Z,19.12
2019-04-16T14:04:14.897Z,18.72
2019-04-16T14:07:00.648Z,19.37
2019-04-16T14:09:46.208Z,19.44
2019-04-16T14:12:41.979Z,19.72
2019-04-16T14:15:31.627Z,19.31
2019-04-16T14:18:09.764Z,19.12
2019-04-16T14:20:55.865Z,19.32
2019-04-16T14:23:41.754Z,19.46
2019-04-16T14:26:27.147Z,18.84
2019-04-16T14:29:12.612Z,19.18
2019-04-16T14:31:58.821Z,18.71
2019-04-16T14:34:46.076Z,18.71
2019-04-16T14:37:31.353Z,19.05
2019-04-16T14:40:10.719Z,18.85
2019-04-16T14:42:37.534Z,19.06
2019-04-16T14:45:19.039Z,18.79
2019-04-16T14:47:45.864Z,18.74
2019-04-16T14:50:13.821Z,19.85
2019-04-16T14:52:40.785Z,20.09
2019-04-16T14:55:09.827Z,21.35
2019-04-16T14:57:39.797Z,20.24
2019-04-16T15:00:09.174Z,21.08
2019-04-16T15:02:40.784Z,20.53
2019-04-16T15:05:16.329Z,20.83
2019-04-16T15:08:12.924Z,20.57
2019-04-16T15:11:00.269Z,21.00
2019-04-16T15:13:56.928Z,21.03
2019-04-16T15:16:50.890Z,20.87
2019-04-16T15:19:50.269Z,20.88
2019-04-16T15:22:54.501Z,20.94
2019-04-16T15:25:44.262Z,21.27
2019-04-16T15:28:31.956Z,20.61
2019-04-16T15:31:22.317Z,19.97
2019-04-16T15:34:18.457Z,20.43
2019-04-16T15:37:09.295Z,20.70
2019-04-16T15:39:59.189Z,20.66
2019-04-16T15:42:48.123Z,21.40
2019-04-16T15:45:37.471Z,20.91
2019-04-16T15:48:36.775Z,21.04
2019-04-16T15:51:32.790Z,20.61
2019-04-16T15:54:36.717Z,22.04
2019-04-16T15:57:41.140Z,22.24
2019-04-16T16:00:44.887Z,22.52
2019-04-16T16:03:48.933Z,22.36
2019-04-16T16:06:36.699Z,22.54
2019-04-16T16:09:26.646Z,22.88
2019-04-16T16:12:14.319Z,22.76
2019-04-16T16:14:59.735Z,22.38
2019-04-16T16:17:45.595Z,22.37
2019-04-16T16:20:31.198Z,22.68
2019-04-16T16:23:16.452Z,22.94
2019-04-16T16:26:02.652Z,23.33
2019-04-16T16:28:48.668Z,23.23
2019-04-16T16:31:35.701Z,24.32
2019-04-16T16:34:21.237Z,24.15
2019-04-16T16:37:06.660Z,24.30
2019-04-16T16:39:52.197Z,24.74
2019-04-16T16:42:37.467Z,25.01
2019-04-16T16:45:24.483Z,25.23
2019-04-16T16:48:10.996Z,24.96
2019-04-16T16:50:56.468Z,24.79
2019-04-16T16:53:47.017Z,25.26
2019-04-16T16:56:49.553Z,25.47
2019-04-16T16:59:53.259Z,26.06
2019-04-16T17:02:40.546Z,26.47
2019-04-16T17:05:32.013Z,26.85
2019-04-16T17:08:17.702Z,27.49
2019-04-16T17:11:14.617Z,28.10
2019-04-16T17:13:50.415Z,28.58
2019-04-16T17:16:37.205Z,29.16
2019-04-16T17:19:22.680Z,29.79
2019-04-16T17:22:07.959Z,30.67
2019-04-16T17:24:53.134Z,31.66
2019-04-16T17:27:50.525Z,31.55
2019-04-16T17:30:25.329Z,31.59
2019-04-16T17:33:10.593Z,31.71
2019-04-16T17:35:55.874Z,31.88
2019-04-16T17:38:41.247Z,32.17
2019-04-16T17:41:28.372Z,32.38
2019-04-16T17:44:27.374Z,32.41
2019-04-16T17:47:32.266Z,33.03
2019-04-16T17:50:18.227Z,33.12
2019-04-16T17:53:17.463Z,33.45
2019-04-16T17:56:20.900Z,33.69
2019-04-16T17:59:08.125Z,33.95
2019-04-16T18:02:11.928Z,33.73
2019-04-16T18:04:59.283Z,33.82
2019-04-16T18:07:46.524Z,33.92
2019-04-16T18:10:52.467Z,34.41
2019-04-16T18:13:45.767Z,35.21
2019-04-16T18:16:35.922Z,34.98
2019-04-16T18:19:25.922Z,35.63
2019-04-16T18:22:15.778Z,35.59
2019-04-16T18:25:05.034Z,35.58
2019-04-16T18:27:52.427Z,36.07
2019-04-16T18:30:48.716Z,36.30
2019-04-16T18:33:53.215Z,36.62
2019-04-16T18:36:46.521Z,36.39
2019-04-16T18:39:37.172Z,36.99
2019-04-16T18:42:39.189Z,36.79
2019-04-16T18:45:26.573Z,36.95
2019-04-16T18:48:23.988Z,37.28
2019-04-16T18:51:09.664Z,37.12
2019-04-16T18:53:55.403Z,37.10
2019-04-16T18:56:40.796Z,37.23
2019-04-16T18:59:26.978Z,37.31
2019-04-16T19:02:12.354Z,37.28
2019-04-16T19:04:57.840Z,37.61
2019-04-16T19:07:44.755Z,38.05
2019-04-16T19:10:30.456Z,38.11
2019-04-16T19:13:15.406Z,38.26
2019-04-16T19:16:02.112Z,38.82
2019-04-16T19:18:47.492Z,38.66
2019-04-16T19:21:33.078Z,39.34
2019-04-16T19:24:18.582Z,39.74
2019-04-16T19:27:04.902Z,39.97
2019-04-16T19:29:50.666Z,40.16
2019-04-16T19:32:36.638Z,40.05
2019-04-16T19:35:22.596Z,40.34
2019-04-16T19:38:08.419Z,40.17
2019-04-16T19:40:55.069Z,40.23
2019-04-16T19:43:40.753Z,40.72
2019-04-16T19:46:26.408Z,40.18
2019-04-16T19:49:11.880Z,40.37
2019-04-16T19:51:57.146Z,40.33
2019-04-16T19:54:42.738Z,40.94
2019-04-16T19:57:28.825Z,40.59
2019-04-16T20:00:14.389Z,40.63
2019-04-16T20:02:59.825Z,40.58
2019-04-16T20:05:45.573Z,40.98
2019-04-16T20:08:34.446Z,41.60
2019-04-16T20:11:21.377Z,41.77
2019-04-16T20:14:06.060Z,42.61
2019-04-16T20:16:51.817Z,42.00
2019-04-16T20:19:39.023Z,42.33
2019-04-16T20:22:24.620Z,42.06
2019-04-16T20:25:09.913Z,42.16
2019-04-16T20:27:55.533Z,42.46
2019-04-16T20:30:40.509Z,42.69
2019-04-16T20:33:26.345Z,42.74
2019-04-16T20:36:11.696Z,42.84
2019-04-16T20:38:57.476Z,42.71
2019-04-16T20:41:42.666Z,42.95
2019-04-16T20:44:27.625Z,43.21
2019-04-16T20:47:13.005Z,42.90
2019-04-16T20:49:58.445Z,42.84
2019-04-16T20:52:43.964Z,43.43
2019-04-16T20:55:29.153Z,43.31
2019-04-16T20:58:14.864Z,43.35
2019-04-16T21:01:01.572Z,43.38
2019-04-16T21:03:48.381Z,44.17
2019-04-16T21:06:33.737Z,43.98
2019-04-16T21:09:19.404Z,43.41
2019-04-16T21:12:04.479Z,44.56
2019-04-16T21:14:50.942Z,44.45
2019-04-16T21:17:39.095Z,44.54
2019-04-16T21:20:23.707Z,44.52
2019-04-16T21:23:09.094Z,44.86
2019-04-16T21:25:54.535Z,45.53
2019-04-16T21:28:44.606Z,45.37
2019-04-16T21:31:43.837Z,45.67
2019-04-16T21:34:31.477Z,45.92
2019-04-16T21:37:21.475Z,46.42
2019-04-16T21:40:07.913Z,46.62
2019-04-16T21:42:53.176Z,46.67
2019-04-16T21:45:38.241Z,48.02
2019-04-16T21:48:26.440Z,47.74
2019-04-16T21:51:10.690Z,48.67
2019-04-16T21:53:57.381Z,48.17
2019-04-16T21:56:43.843Z,48.43
2019-04-16T21:59:29.283Z,48.01
2019-04-16T22:02:22.146Z,47.95
2019-04-16T22:05:07.821Z,48.03
2019-04-16T22:07:53.712Z,48.40
2019-04-16T22:10:40.674Z,48.38
2019-04-16T22:13:25.845Z,48.59
2019-04-16T22:16:11.585Z,48.75
2019-04-16T22:18:56.598Z,48.48
2019-04-16T22:21:42.851Z,48.16
2019-04-16T22:24:29.049Z,48.29
2019-04-16T22:27:13.837Z,49.09
2019-04-16T22:29:59.147Z,49.81
2019-04-16T22:32:44.416Z,50.51
2019-04-16T22:35:31.850Z,50.43
2019-04-16T22:38:16.400Z,49.78
2019-04-16T22:41:06.382Z,49.55
2019-04-16T22:43:56.647Z,49.96
2019-04-16T22:46:44.181Z,49.66
2019-04-16T22:49:29.112Z,50.00
2019-04-16T22:52:14.209Z,49.85
2019-04-16T22:54:59.371Z,50.24
2019-04-16T22:57:44.693Z,50.68
2019-04-16T23:00:32.288Z,50.24
2019-04-16T23:03:19.595Z,49.90
2019-04-16T23:06:06.304Z,50.25
2019-04-16T23:08:51.889Z,50.57
2019-04-16T23:11:39.113Z,50.48
2019-04-16T23:14:24.608Z,50.15
2019-04-16T23:17:13.185Z,50.30
2019-04-16T23:19:57.142Z,50.46
2019-04-16T23:22:43.652Z,50.69
2019-04-16T23:25:29.505Z,50.87
2019-04-16T23:28:14.574Z,50.49
2019-04-16T23:30:59.627Z,50.89
2019-04-16T23:33:45.003Z,51.46
2019-04-16T23:36:30.427Z,51.45
2019-04-16T23:39:15.964Z,52.42
2019-04-16T23:42:01.191Z,52.13
2019-04-16T23:44:48.493Z,52.04
2019-04-16T23:47:54.115Z,52.09
2019-04-16T23:50:45.221Z,51.97
2019-04-16T23:53:48.775Z,51.74
2019-04-16T23:56:36.284Z,51.63
2019-04-16T23:59:26.531Z,52.46
